« 特売旅 MM177 2017/1/17 tue | トップページ | 軍艦島ツアー 長崎市 2017/1/18 wed »

2017/01/21

曇りだった 長崎空港 2017/1/17 tue

過去を遡れば17年ぶりの長崎空港。パット見、あまり変ったところはないようです。

RJFU 170600Z 30005KT 250V340 9999 FEW030 BKN/// 11/M01 Q1027

20170117_rjfu_00welcom

月末は長崎ランタンフェスティバルだそうです。

20170117_rjfu_01welcom

ここにも顔出し看板

20170117_rjfu_02ja811p

小生の乗ってきた機体も折り返し準備中

20170117_rjfu_03ja8975

20170117_rjfu_04ja8975

JAL612 RJFU-RJTT JA8975 B767-346

20170117_rjfu_05m8976

8976 UH-60J HS72

大村飛行場では、海自へりがT/G訓練中

20170117_rjfu_06ja808x

20170117_rjfu_07ja808x

SNJ40 RJFU-RJTT JA808X B737-8

20170117_rjfu_08m8456

8456 SH-60K HS22

20170117_rjfu_09ja802b

オリエンタルエアブリッジ 昔は、長崎航空って言ってたね。

20170117_rjfu_10ja811p

なんか、一気に出発ラッシュ

20170117_rjfu_11ja227j

J-AIRもプッシュ

20170117_rjfu_12ja227j

いってらっしゃーい

20170117_rjfu_13ja802b

NGK45 RJFU-RJDB JA802B DHC8-201

20170117_rjfu_14ja811p

APJ178 RJFU-RJBB JA811P A320-214

20170117_rjfu_15ja227j

JAL2376 RJFU-RJOO JA227J ERJ-170STD

20170117_rjfu_16m8456

訓練は続いています

RJFU 170700Z 36004KT 9999 FEW030 BKN/// 10/M01 Q1028

20170117_rjfu_17ja344j

JAL611 RJTT-RJFU JA344J B737-846

20170117_rjfu_18ja73np

SKY145 RJBE-RJFU JA73NP B737-8HX

20170117_rjfu_19m8450

8450 SH-60K HS22

20170117_rjfu_20m8976

ひっきりなしにグールグル

20170117_rjfu_21m8976

まだまだ見ていたいのですが、ここで切り上げて長崎市街へ向かいます。

RJFU 170800Z 06001KT 9999 FEW030 SCT050 BKN/// 10/M01 Q1028

20170117_rjfu_22sunset

長崎自動車道のバスから見る夕陽が美しかった。

つづく・・

|

« 特売旅 MM177 2017/1/17 tue | トップページ | 軍艦島ツアー 長崎市 2017/1/18 wed »

長崎空港」カテゴリの記事

空撮」カテゴリの記事

コメント

コメントを書く



(ウェブ上には掲載しません)


コメントは記事投稿者が公開するまで表示されません。



トラックバック


この記事へのトラックバック一覧です: 曇りだった 長崎空港 2017/1/17 tue:

« 特売旅 MM177 2017/1/17 tue | トップページ | 軍艦島ツアー 長崎市 2017/1/18 wed »